createdAt,value
2023-05-18T00:02:07.178Z,100814.50
2023-05-18T00:04:36.437Z,100817.72
2023-05-18T00:07:05.547Z,100819.56
2023-05-18T00:09:36.561Z,100815.59
2023-05-18T00:12:06.284Z,100814.53
2023-05-18T00:14:34.444Z,100818.06
2023-05-18T00:17:03.391Z,100816.78
2023-05-18T00:19:31.754Z,100815.31
2023-05-18T00:22:02.473Z,100821.19
2023-05-18T00:24:30.924Z,100816.03
2023-05-18T00:26:59.280Z,100813.47
2023-05-18T00:29:28.221Z,100827.88
2023-05-18T00:31:56.683Z,100816.38
2023-05-18T00:34:24.748Z,100818.13
2023-05-18T00:36:53.347Z,100823.38
2023-05-18T00:39:21.351Z,100819.88
2023-05-18T00:41:49.780Z,100815.91
2023-05-18T00:44:17.795Z,100825.09
2023-05-18T00:46:46.104Z,100820.59
2023-05-18T00:49:14.478Z,100812.06
2023-05-18T00:51:43.370Z,100825.78
2023-05-18T00:54:11.715Z,100816.19
2023-05-18T00:56:46.509Z,100810.06
2023-05-18T00:59:15.760Z,100807.84
2023-05-18T01:01:45.056Z,100816.00
2023-05-18T01:04:16.295Z,100821.09
2023-05-18T01:06:46.730Z,100822.19
2023-05-18T01:09:16.584Z,100817.28
2023-05-18T01:11:57.378Z,100821.88
2023-05-18T01:14:33.505Z,100824.94
2023-05-18T01:17:36.616Z,100825.94
2023-05-18T01:20:20.960Z,100826.72
2023-05-18T01:23:12.177Z,100828.97
2023-05-18T01:25:55.731Z,100823.28
2023-05-18T01:28:31.293Z,100826.97
2023-05-18T01:31:00.159Z,100816.56
2023-05-18T01:33:28.570Z,100816.50
2023-05-18T01:35:56.657Z,100820.91
2023-05-18T01:38:28.857Z,100830.28
2023-05-18T01:41:02.498Z,100821.69
2023-05-18T01:43:35.187Z,100821.78
2023-05-18T01:46:23.402Z,100815.53
2023-05-18T01:49:00.681Z,100814.25
2023-05-18T01:51:34.368Z,100812.53
2023-05-18T01:54:08.411Z,100814.31
2023-05-18T01:56:41.334Z,100811.53
2023-05-18T01:59:11.465Z,100812.16
2023-05-18T02:01:39.603Z,100820.09
2023-05-18T02:04:11.281Z,100817.88
2023-05-18T02:06:39.738Z,100819.03
2023-05-18T02:09:10.330Z,100818.38
2023-05-18T02:11:38.909Z,100806.63
2023-05-18T02:14:07.381Z,100811.19
2023-05-18T02:16:35.386Z,100820.78
2023-05-18T02:19:03.811Z,100809.34
2023-05-18T02:21:34.865Z,100809.97
2023-05-18T02:24:05.115Z,100804.50
2023-05-18T02:26:33.122Z,100811.56
2023-05-18T02:29:01.624Z,100808.53
2023-05-18T02:31:31.313Z,100809.47
2023-05-18T02:34:03.009Z,100805.81
2023-05-18T02:36:43.011Z,100802.53
2023-05-18T02:39:11.422Z,100808.91
2023-05-18T02:41:39.467Z,100799.22
2023-05-18T02:44:07.880Z,100808.50
2023-05-18T02:46:35.864Z,100809.34
2023-05-18T02:49:04.487Z,100805.41
2023-05-18T02:51:32.721Z,100809.63
2023-05-18T02:54:02.269Z,100802.94
2023-05-18T02:56:33.123Z,100801.47
2023-05-18T02:59:11.882Z,100802.25
2023-05-18T03:01:43.485Z,100803.00
2023-05-18T03:04:14.252Z,100805.28
2023-05-18T03:06:53.188Z,100809.13
2023-05-18T03:09:23.824Z,100809.75
2023-05-18T03:11:54.889Z,100809.47
2023-05-18T03:14:23.364Z,100811.19
2023-05-18T03:16:54.641Z,100812.09
2023-05-18T03:19:27.340Z,100804.09
2023-05-18T03:21:55.577Z,100800.13
2023-05-18T03:24:26.766Z,100808.81
2023-05-18T03:26:55.396Z,100808.50
2023-05-18T03:29:24.457Z,100810.28
2023-05-18T03:31:53.568Z,100809.22
2023-05-18T03:34:21.935Z,100806.97
2023-05-18T03:36:52.847Z,100812.75
2023-05-18T03:39:22.029Z,100811.31
2023-05-18T03:41:50.082Z,100818.63
2023-05-18T03:44:18.799Z,100828.38
2023-05-18T03:46:46.976Z,100822.25
2023-05-18T03:49:15.437Z,100821.94
2023-05-18T03:51:44.410Z,100816.91
2023-05-18T03:54:12.821Z,100817.19
2023-05-18T03:56:41.271Z,100825.22
2023-05-18T03:59:09.637Z,100822.38
2023-05-18T04:01:38.445Z,100830.22
2023-05-18T04:04:07.797Z,100831.06
2023-05-18T04:06:36.118Z,100835.19
2023-05-18T04:09:04.623Z,100832.06
2023-05-18T04:11:32.713Z,100826.66
2023-05-18T04:14:01.301Z,100831.09
2023-05-18T04:16:29.412Z,100836.09
2023-05-18T04:18:57.861Z,100840.34
2023-05-18T04:21:26.104Z,100844.53
2023-05-18T04:23:54.398Z,100843.34
2023-05-18T04:26:22.399Z,100845.72
2023-05-18T04:28:52.767Z,100851.69
2023-05-18T04:31:20.714Z,100858.97
2023-05-18T04:33:51.530Z,100853.72
2023-05-18T04:36:21.301Z,100854.13
2023-05-18T04:38:52.038Z,100860.44
2023-05-18T04:41:23.341Z,100863.22
2023-05-18T04:43:53.987Z,100862.06
2023-05-18T04:46:22.529Z,100871.59
2023-05-18T04:48:51.170Z,100870.34
2023-05-18T04:51:22.797Z,100871.25
2023-05-18T04:53:51.688Z,100874.56
2023-05-18T04:56:23.258Z,100882.41
2023-05-18T04:58:51.757Z,100880.56
2023-05-18T05:01:19.740Z,100883.59
2023-05-18T05:03:49.917Z,100878.34
2023-05-18T05:06:17.859Z,100894.06
2023-05-18T05:08:46.210Z,100892.72
2023-05-18T05:11:14.115Z,100898.91
2023-05-18T05:13:42.414Z,100897.16
2023-05-18T05:16:11.383Z,100902.47
2023-05-18T05:18:39.680Z,100901.72
2023-05-18T05:21:09.277Z,100902.03
2023-05-18T05:23:37.505Z,100899.47
2023-05-18T05:26:05.589Z,100907.59
2023-05-18T05:28:33.845Z,100908.38
2023-05-18T05:31:01.832Z,100904.53
2023-05-18T05:33:31.538Z,100911.44
2023-05-18T05:35:59.439Z,100912.66
2023-05-18T05:38:27.667Z,100907.72
2023-05-18T05:40:56.335Z,100901.69
2023-05-18T05:43:24.892Z,100907.75
2023-05-18T05:45:52.916Z,100915.69
2023-05-18T05:48:21.521Z,100913.63
2023-05-18T05:50:49.662Z,100917.09
2023-05-18T05:53:20.001Z,100917.84
2023-05-18T05:55:49.950Z,100920.19
2023-05-18T05:58:19.666Z,100920.53
2023-05-18T06:00:52.523Z,100925.22
2023-05-18T06:03:22.111Z,100927.19
2023-05-18T06:05:50.827Z,100923.38
2023-05-18T06:08:24.380Z,100932.34
2023-05-18T06:10:55.930Z,100936.50
2023-05-18T06:13:26.191Z,100931.38
2023-05-18T06:15:58.805Z,100931.38
2023-05-18T06:18:27.480Z,100933.72
2023-05-18T06:21:01.503Z,100933.56
2023-05-18T06:23:30.330Z,100937.41
2023-05-18T06:26:04.418Z,100932.91
2023-05-18T06:28:51.334Z,100940.50
2023-05-18T06:31:30.716Z,100941.13
2023-05-18T06:34:34.423Z,100945.41
2023-05-18T06:37:02.476Z,100939.22
2023-05-18T06:39:31.054Z,100933.97
2023-05-18T06:41:59.487Z,100941.66
2023-05-18T06:44:35.373Z,100940.22
2023-05-18T06:47:08.706Z,100946.09
2023-05-18T06:49:37.279Z,100942.97
2023-05-18T06:52:06.218Z,100939.31
2023-05-18T06:54:34.874Z,100935.97
2023-05-18T06:57:03.001Z,100941.31
2023-05-18T06:59:32.524Z,100933.38
2023-05-18T07:02:00.688Z,100928.38
2023-05-18T07:04:29.051Z,100922.81
2023-05-18T07:06:57.016Z,100934.22
2023-05-18T07:09:26.166Z,100938.25
2023-05-18T07:11:54.273Z,100927.00
2023-05-18T07:14:22.646Z,100937.63
2023-05-18T07:16:50.692Z,100932.63
2023-05-18T07:19:18.993Z,100932.06
2023-05-18T07:21:47.005Z,100929.56
2023-05-18T07:24:15.295Z,100931.47
2023-05-18T07:26:43.298Z,100932.72
2023-05-18T07:29:11.956Z,100927.44
2023-05-18T07:31:41.537Z,100926.78
2023-05-18T07:34:09.850Z,100930.97
2023-05-18T07:36:37.865Z,100925.22
2023-05-18T07:39:06.285Z,100926.16
2023-05-18T07:41:34.313Z,100926.59
2023-05-18T07:44:02.616Z,100921.72
2023-05-18T07:46:30.788Z,100926.13
2023-05-18T07:48:59.136Z,100933.66
2023-05-18T07:51:27.019Z,100930.59
2023-05-18T07:53:55.382Z,100929.75
2023-05-18T07:56:24.346Z,100928.28
2023-05-18T07:58:52.868Z,100928.84
2023-05-18T08:01:22.629Z,100924.53
2023-05-18T08:03:51.494Z,100919.34
2023-05-18T08:06:19.608Z,100922.41
2023-05-18T08:08:47.981Z,100919.59
2023-05-18T08:11:16.349Z,100926.50
2023-05-18T08:13:44.746Z,100913.66
2023-05-18T08:16:12.778Z,100912.31
2023-05-18T08:18:41.374Z,100911.63
2023-05-18T08:21:10.303Z,100915.25
2023-05-18T08:23:39.289Z,100909.19
2023-05-18T08:26:10.078Z,100913.78
2023-05-18T08:28:39.771Z,100910.00
2023-05-18T08:31:08.157Z,100912.66
2023-05-18T08:33:36.465Z,100918.41
2023-05-18T08:36:04.909Z,100909.47
2023-05-18T08:38:33.441Z,100904.53
2023-05-18T08:41:23.801Z,100903.94
2023-05-18T08:44:01.502Z,100902.19
2023-05-18T08:46:51.312Z,100906.09
2023-05-18T08:49:22.061Z,100913.41
2023-05-18T08:51:59.461Z,100904.16
2023-05-18T08:54:28.488Z,100914.56
2023-05-18T08:56:57.501Z,100909.78
2023-05-18T08:59:28.006Z,100902.03
2023-05-18T09:01:56.343Z,100901.88
2023-05-18T09:04:25.088Z,100901.91
2023-05-18T09:06:55.009Z,100897.00
2023-05-18T09:09:25.506Z,100905.31
2023-05-18T09:11:56.053Z,100906.13
2023-05-18T09:14:26.314Z,100898.66
2023-05-18T09:16:54.859Z,100900.44
2023-05-18T09:19:25.044Z,100908.53
2023-05-18T09:21:53.132Z,100910.53
2023-05-18T09:24:24.390Z,100908.75
2023-05-18T09:26:53.473Z,100906.44
2023-05-18T09:29:24.439Z,100910.16
2023-05-18T09:31:54.685Z,100905.94
2023-05-18T09:34:24.813Z,100903.94
2023-05-18T09:36:57.995Z,100909.44
2023-05-18T09:39:26.347Z,100906.69
2023-05-18T09:41:58.092Z,100910.31
2023-05-18T09:44:33.049Z,100907.66
2023-05-18T09:47:02.638Z,100916.13
2023-05-18T09:49:31.693Z,100922.59
2023-05-18T09:52:02.807Z,100931.72
2023-05-18T09:54:31.174Z,100929.56
2023-05-18T09:57:10.331Z,100935.38
2023-05-18T09:59:40.780Z,100925.59
2023-05-18T10:02:13.399Z,100942.34
2023-05-18T10:04:43.585Z,100933.75
2023-05-18T10:07:16.661Z,100934.06
2023-05-18T10:09:46.478Z,100931.66
2023-05-18T10:12:17.446Z,100941.22
2023-05-18T10:14:46.843Z,100943.38
2023-05-18T10:17:17.321Z,100941.16
2023-05-18T10:19:47.221Z,100932.06
2023-05-18T10:22:18.457Z,100922.84
2023-05-18T10:24:52.727Z,100920.94
2023-05-18T10:27:27.783Z,100923.28
2023-05-18T10:29:59.515Z,100920.97
2023-05-18T10:32:29.839Z,100928.25
2023-05-18T10:35:00.660Z,100917.94
2023-05-18T10:37:32.034Z,100917.09
2023-05-18T10:40:01.047Z,100912.94
2023-05-18T10:42:30.891Z,100912.91
2023-05-18T10:45:02.026Z,100905.72
2023-05-18T10:47:30.437Z,100908.69
2023-05-18T10:50:04.414Z,100901.97
2023-05-18T10:52:34.216Z,100904.38
2023-05-18T10:55:04.615Z,100911.78
2023-05-18T10:57:47.080Z,100897.69
2023-05-18T11:00:16.667Z,100901.19
2023-05-18T11:02:45.510Z,100895.78
2023-05-18T11:05:14.063Z,100898.59
2023-05-18T11:07:46.520Z,100903.53
2023-05-18T11:10:14.977Z,100899.06
2023-05-18T11:12:43.475Z,100897.38
2023-05-18T11:15:12.098Z,100899.13
2023-05-18T11:17:40.129Z,100906.63
2023-05-18T11:20:09.243Z,100903.50
2023-05-18T11:23:03.154Z,100916.03
2023-05-18T11:25:34.489Z,100904.78
2023-05-18T11:28:05.970Z,100904.72
2023-05-18T11:30:34.540Z,100903.97
2023-05-18T11:33:23.078Z,100904.72
2023-05-18T11:35:57.557Z,100901.19
2023-05-18T11:38:54.522Z,100912.59
2023-05-18T11:41:35.248Z,100903.63
2023-05-18T11:44:10.405Z,100896.09
2023-05-18T11:46:51.478Z,100896.78
2023-05-18T11:49:23.444Z,100897.63
2023-05-18T11:52:04.982Z,100906.53
2023-05-18T11:54:55.779Z,100907.84
2023-05-18T11:57:42.207Z,100899.69
2023-05-18T12:00:12.366Z,100890.75
2023-05-18T12:02:46.683Z,100889.84
2023-05-18T12:05:15.520Z,100891.09
2023-05-18T12:07:45.335Z,100895.75
2023-05-18T12:10:15.135Z,100890.28
2023-05-18T12:12:45.058Z,100899.25
2023-05-18T12:15:16.532Z,100887.63
2023-05-18T12:17:48.165Z,100888.88
2023-05-18T12:20:18.290Z,100894.53
2023-05-18T12:22:52.386Z,100896.03
2023-05-18T12:25:22.207Z,100890.72
2023-05-18T12:27:52.906Z,100890.31
2023-05-18T12:30:35.942Z,100893.50
2023-05-18T12:33:05.049Z,100896.19
2023-05-18T12:35:33.607Z,100900.47
2023-05-18T12:38:03.019Z,100895.44
2023-05-18T12:40:45.007Z,100889.59
2023-05-18T12:43:13.679Z,100880.81
2023-05-18T12:45:44.800Z,100879.34
2023-05-18T12:48:15.199Z,100877.81
2023-05-18T12:50:48.248Z,100883.72
2023-05-18T12:53:17.899Z,100883.75
2023-05-18T12:55:45.999Z,100885.28
2023-05-18T12:58:19.092Z,100885.25
2023-05-18T13:00:49.036Z,100877.50
2023-05-18T13:03:20.478Z,100880.72
2023-05-18T13:06:03.822Z,100876.41
2023-05-18T13:08:32.913Z,100878.22
2023-05-18T13:11:13.434Z,100876.56
2023-05-18T13:13:59.832Z,100877.38
2023-05-18T13:16:30.814Z,100872.22
2023-05-18T13:19:04.373Z,100866.66
2023-05-18T13:21:33.435Z,100864.59
2023-05-18T13:24:03.644Z,100863.22
2023-05-18T13:26:31.869Z,100847.59
2023-05-18T13:29:00.553Z,100860.16
2023-05-18T13:31:30.121Z,100856.22
2023-05-18T13:33:58.600Z,100859.00
2023-05-18T13:36:26.704Z,100850.06
2023-05-18T13:38:55.633Z,100842.53
2023-05-18T13:41:23.717Z,100845.47
2023-05-18T13:43:52.102Z,100843.94
2023-05-18T13:46:20.565Z,100839.63
2023-05-18T13:48:49.098Z,100842.56
2023-05-18T13:51:17.289Z,100845.69
2023-05-18T13:53:45.907Z,100840.66
2023-05-18T13:56:14.147Z,100833.03
2023-05-18T13:58:44.102Z,100841.66
2023-05-18T14:01:13.857Z,100827.38
2023-05-18T14:03:42.674Z,100826.56
2023-05-18T14:06:11.008Z,100827.69
2023-05-18T14:08:39.789Z,100828.53
2023-05-18T14:11:07.921Z,100824.31
2023-05-18T14:13:36.452Z,100827.56
2023-05-18T14:16:04.785Z,100815.41
2023-05-18T14:18:33.267Z,100816.06
2023-05-18T14:21:03.710Z,100804.56
2023-05-18T14:23:32.196Z,100798.63
2023-05-18T14:26:00.328Z,100805.16
2023-05-18T14:28:30.363Z,100809.00
2023-05-18T14:30:59.723Z,100795.50
2023-05-18T14:33:28.187Z,100808.41
2023-05-18T14:35:57.422Z,100803.03
2023-05-18T14:38:27.482Z,100794.97
2023-05-18T14:40:55.705Z,100801.31
2023-05-18T14:43:24.035Z,100789.47
2023-05-18T14:46:06.856Z,100785.94
2023-05-18T14:48:37.333Z,100785.88
2023-05-18T14:51:05.427Z,100778.31
2023-05-18T14:53:33.795Z,100795.06
2023-05-18T14:56:06.349Z,100791.88
2023-05-18T14:58:36.227Z,100789.66
2023-05-18T15:01:04.349Z,100793.44
2023-05-18T15:03:32.922Z,100791.09
2023-05-18T15:06:01.153Z,100792.94
2023-05-18T15:08:29.672Z,100800.19
2023-05-18T15:10:57.870Z,100786.41
2023-05-18T15:13:26.232Z,100796.19
2023-05-18T15:15:54.455Z,100791.44
2023-05-18T15:18:22.885Z,100790.88
2023-05-18T15:20:50.942Z,100791.16
2023-05-18T15:23:19.302Z,100798.56
2023-05-18T15:25:47.474Z,100800.19
2023-05-18T15:28:15.965Z,100796.06
2023-05-18T15:30:44.179Z,100789.38
2023-05-18T15:33:12.601Z,100787.72
2023-05-18T15:35:40.782Z,100797.84
2023-05-18T15:38:09.207Z,100793.50
2023-05-18T15:40:37.413Z,100789.63
2023-05-18T15:43:05.926Z,100799.78
2023-05-18T15:45:34.197Z,100793.72
2023-05-18T15:48:02.606Z,100792.38
2023-05-18T15:50:31.309Z,100792.66
2023-05-18T15:52:59.765Z,100782.56
2023-05-18T15:55:28.416Z,100784.56
2023-05-18T15:57:57.285Z,100783.97
2023-05-18T16:00:26.811Z,100781.47
2023-05-18T16:02:55.333Z,100777.31
2023-05-18T16:05:23.457Z,100782.16
2023-05-18T16:07:51.827Z,100772.13
2023-05-18T16:10:19.936Z,100787.41
2023-05-18T16:12:48.288Z,100778.66
2023-05-18T16:15:16.338Z,100785.81
2023-05-18T16:17:44.799Z,100782.22
2023-05-18T16:20:13.837Z,100785.00
2023-05-18T16:22:42.248Z,100785.66
2023-05-18T16:25:10.319Z,100786.84
2023-05-18T16:27:39.149Z,100786.75
2023-05-18T16:30:07.818Z,100787.09
2023-05-18T16:32:36.167Z,100797.75
2023-05-18T16:35:05.103Z,100797.44
2023-05-18T16:37:33.616Z,100798.50
2023-05-18T16:40:01.575Z,100800.00
2023-05-18T16:42:29.938Z,100804.53
2023-05-18T16:44:58.256Z,100803.84
2023-05-18T16:47:27.859Z,100808.75
2023-05-18T16:49:55.887Z,100815.78
2023-05-18T16:52:24.185Z,100809.19
2023-05-18T16:54:52.297Z,100815.66
2023-05-18T16:57:21.415Z,100810.31
2023-05-18T16:59:49.538Z,100820.53
2023-05-18T17:02:18.348Z,100813.81
2023-05-18T17:04:46.544Z,100815.44
2023-05-18T17:07:15.717Z,100805.63
2023-05-18T17:09:43.994Z,100817.00
2023-05-18T17:12:12.943Z,100815.06
2023-05-18T17:14:41.013Z,100819.03
2023-05-18T17:17:09.514Z,100817.81
2023-05-18T17:19:39.526Z,100820.94
2023-05-18T17:22:09.810Z,100826.06
2023-05-18T17:24:39.189Z,100824.09
2023-05-18T17:27:08.075Z,100835.38
2023-05-18T17:29:36.394Z,100836.06
2023-05-18T17:32:05.230Z,100839.97
2023-05-18T17:34:33.388Z,100836.59
2023-05-18T17:37:01.762Z,100843.19
2023-05-18T17:39:29.729Z,100830.63
2023-05-18T17:42:00.556Z,100824.72
2023-05-18T17:44:28.621Z,100831.31
2023-05-18T17:46:57.692Z,100831.00
2023-05-18T17:49:25.809Z,100842.69
2023-05-18T17:51:54.308Z,100841.84
2023-05-18T17:54:22.700Z,100832.53
2023-05-18T17:56:51.384Z,100836.28
2023-05-18T17:59:19.277Z,100840.13
2023-05-18T18:01:47.533Z,100838.41
2023-05-18T18:04:15.754Z,100838.84
2023-05-18T18:06:45.841Z,100840.63
2023-05-18T18:09:14.001Z,100843.34
2023-05-18T18:11:42.429Z,100841.34
2023-05-18T18:14:11.754Z,100852.50
2023-05-18T18:16:40.299Z,100856.22
2023-05-18T18:19:08.870Z,100857.44
2023-05-18T18:21:37.429Z,100854.38
2023-05-18T18:24:05.720Z,100849.97
2023-05-18T18:26:38.889Z,100862.72
2023-05-18T18:29:07.598Z,100855.72
2023-05-18T18:31:36.097Z,100861.03
2023-05-18T18:34:04.261Z,100857.72
2023-05-18T18:36:32.704Z,100860.72
2023-05-18T18:39:00.884Z,100861.91
2023-05-18T18:41:29.223Z,100856.94
2023-05-18T18:43:57.477Z,100863.59
2023-05-18T18:46:25.947Z,100872.28
2023-05-18T18:48:54.043Z,100871.31
2023-05-18T18:51:22.476Z,100871.06
2023-05-18T18:53:50.537Z,100879.94
2023-05-18T18:56:19.160Z,100878.03
2023-05-18T18:58:47.469Z,100882.78
2023-05-18T19:01:16.165Z,100886.28
2023-05-18T19:03:44.711Z,100887.00
2023-05-18T19:06:15.005Z,100883.81
2023-05-18T19:08:43.186Z,100897.91
2023-05-18T19:11:11.766Z,100902.53
2023-05-18T19:13:39.797Z,100899.53
2023-05-18T19:16:09.168Z,100904.16
2023-05-18T19:18:37.889Z,100903.03
2023-05-18T19:21:06.537Z,100908.16
2023-05-18T19:23:34.598Z,100918.09
2023-05-18T19:26:03.138Z,100916.94
2023-05-18T19:28:31.308Z,100919.50
2023-05-18T19:30:59.667Z,100919.81
2023-05-18T19:33:27.757Z,100917.88
2023-05-18T19:35:56.724Z,100927.94
2023-05-18T19:38:25.007Z,100928.91
2023-05-18T19:40:53.412Z,100922.53
2023-05-18T19:43:21.409Z,100930.75
2023-05-18T19:45:50.385Z,100932.06
2023-05-18T19:48:18.457Z,100937.03
2023-05-18T19:50:46.944Z,100941.34
2023-05-18T19:53:14.982Z,100942.81
2023-05-18T19:55:43.560Z,100939.75
2023-05-18T19:58:11.571Z,100938.38
2023-05-18T20:00:41.590Z,100937.91
2023-05-18T20:03:09.969Z,100939.53
2023-05-18T20:05:38.705Z,100938.03
2023-05-18T20:08:08.610Z,100949.22
2023-05-18T20:10:37.072Z,100955.22
2023-05-18T20:13:05.233Z,100952.50
2023-05-18T20:15:37.284Z,100944.84
2023-05-18T20:18:06.996Z,100951.53
2023-05-18T20:20:36.204Z,100959.75
2023-05-18T20:23:06.990Z,100960.69
2023-05-18T20:25:36.628Z,100956.91
2023-05-18T20:28:07.551Z,100958.13
2023-05-18T20:30:36.043Z,100960.00
2023-05-18T20:33:04.952Z,100959.09
2023-05-18T20:35:34.298Z,100958.41
2023-05-18T20:38:04.849Z,100965.19
2023-05-18T20:40:33.722Z,100964.19
2023-05-18T20:43:02.487Z,100961.00
2023-05-18T20:45:31.651Z,100964.66
2023-05-18T20:48:00.332Z,100960.03
2023-05-18T20:50:29.449Z,100960.41
2023-05-18T20:52:57.601Z,100960.31
2023-05-18T20:55:25.970Z,100963.41
2023-05-18T20:57:53.988Z,100964.81
2023-05-18T21:00:22.430Z,100962.41
2023-05-18T21:02:50.948Z,100961.38
2023-05-18T21:05:19.951Z,100969.78
2023-05-18T21:07:49.153Z,100959.75
2023-05-18T21:10:17.938Z,100966.09
2023-05-18T21:12:46.456Z,100961.28
2023-05-18T21:15:14.963Z,100963.72
2023-05-18T21:17:43.112Z,100966.75
2023-05-18T21:20:12.113Z,100971.69
2023-05-18T21:22:40.120Z,100972.38
2023-05-18T21:25:09.301Z,100976.69
2023-05-18T21:27:37.513Z,100975.56
2023-05-18T21:30:06.738Z,100975.16
2023-05-18T21:32:34.861Z,100980.59
2023-05-18T21:35:03.545Z,100975.56
2023-05-18T21:37:31.513Z,100980.06
2023-05-18T21:40:00.050Z,100976.50
2023-05-18T21:42:28.055Z,100976.81
2023-05-18T21:44:56.567Z,100972.53
2023-05-18T21:47:24.763Z,100973.09
2023-05-18T21:49:53.360Z,100976.50
2023-05-18T21:52:21.383Z,100971.81
2023-05-18T21:54:49.673Z,100969.28
2023-05-18T21:57:17.648Z,100968.78
2023-05-18T21:59:46.127Z,100966.13
2023-05-18T22:02:14.254Z,100973.41
2023-05-18T22:04:42.796Z,100972.91
2023-05-18T22:07:11.187Z,100975.63
2023-05-18T22:09:39.558Z,100968.63
2023-05-18T22:12:07.650Z,100972.22
2023-05-18T22:14:36.145Z,100970.28
2023-05-18T22:17:05.473Z,100971.25
2023-05-18T22:19:33.960Z,100975.88
2023-05-18T22:22:01.924Z,100977.59
2023-05-18T22:24:30.324Z,100979.78
2023-05-18T22:26:58.263Z,100971.53
2023-05-18T22:29:26.610Z,100967.19
2023-05-18T22:31:54.656Z,100978.09
2023-05-18T22:34:23.079Z,100974.84
2023-05-18T22:36:51.138Z,100982.50
2023-05-18T22:39:19.525Z,100971.63
2023-05-18T22:41:47.480Z,100975.88
2023-05-18T22:44:15.933Z,100967.06
2023-05-18T22:46:44.142Z,100980.03
2023-05-18T22:49:12.765Z,100975.59
2023-05-18T22:51:41.065Z,100977.53
2023-05-18T22:54:09.433Z,100980.91
2023-05-18T22:56:37.528Z,100975.47
2023-05-18T22:59:07.362Z,100981.09
2023-05-18T23:01:38.060Z,100978.00
2023-05-18T23:04:06.714Z,100971.31
2023-05-18T23:06:34.867Z,100970.81
2023-05-18T23:09:03.213Z,100972.25
2023-05-18T23:11:31.247Z,100973.50
2023-05-18T23:14:02.844Z,100971.41
2023-05-18T23:16:31.076Z,100973.16
2023-05-18T23:19:01.994Z,100968.41
2023-05-18T23:21:31.619Z,100970.38
2023-05-18T23:23:59.947Z,100954.81
2023-05-18T23:26:28.019Z,100963.28
2023-05-18T23:28:56.505Z,100965.28
2023-05-18T23:31:24.529Z,100963.75
2023-05-18T23:33:53.269Z,100959.59
2023-05-18T23:36:21.716Z,100960.91
2023-05-18T23:38:51.255Z,100960.03
2023-05-18T23:41:19.781Z,100959.56
2023-05-18T23:43:48.496Z,100958.97
2023-05-18T23:46:17.226Z,100961.31
2023-05-18T23:48:46.054Z,100961.63
2023-05-18T23:51:17.401Z,100961.59
2023-05-18T23:53:47.228Z,100957.75
2023-05-18T23:56:16.206Z,100960.34
2023-05-18T23:58:46.352Z,100959.41
